Time;durP1;ratioP1;P1;durP2;ratioP2;P2;SDS_P1;SDS_P2;PMS_P1;PMS_P2;Temp;Humidity;BMP_temperature;BMP_pressure;BME280_temperature;BME280_humidity;BME280_pressure;Samples;Min_cycle;Max_cycle;Signal;HPM_P1;HPM_P2
2022/03/13 00:00:32;;;;;;;19.95;8.15;;;6.30;46.40;;;;;;4971540;28;20042;-54
2022/03/13 00:03:02;;;;;;;22.00;8.98;;;6.20;46.50;;;;;;4965402;28;20031;-58
2022/03/13 00:05:28;;;;;;;17.77;8.80;;;6.20;46.20;;;;;;4965658;28;20026;-58
2022/03/13 00:07:56;;;;;;;19.10;9.50;;;6.10;46.30;;;;;;4968932;28;20118;-59
2022/03/13 00:10:27;;;;;;;18.20;9.40;;;6.10;46.50;;;;;;4970045;28;20552;-60
2022/03/13 00:12:54;;;;;;;18.60;8.85;;;6.10;46.60;;;;;;4971957;28;20148;-59
2022/03/13 00:15:32;;;;;;;17.55;8.82;;;6.10;46.80;;;;;;4985536;28;20404;-59
2022/03/13 00:17:59;;;;;;;18.92;9.32;;;6.00;46.90;;;;;;4969624;28;20031;-59
2022/03/13 00:20:27;;;;;;;24.60;10.10;;;6.00;47.20;;;;;;4970568;28;20484;-58
2022/03/13 00:22:57;;;;;;;16.25;8.85;;;6.00;47.30;;;;;;4971069;28;20047;-58
2022/03/13 00:25:23;;;;;;;18.52;9.75;;;5.90;47.40;;;;;;4968583;28;20033;-58
2022/03/13 00:27:49;;;;;;;23.88;10.15;;;5.90;47.80;;;;;;4970705;28;20038;-58
2022/03/13 00:30:16;;;;;;;17.80;9.88;;;5.90;47.70;;;;;;4970095;28;20038;-58
2022/03/13 00:32:42;;;;;;;20.08;10.00;;;5.90;47.70;;;;;;4969548;28;20035;-57
2022/03/13 00:35:08;;;;;;;18.42;9.98;;;5.80;47.70;;;;;;4969041;28;20039;-57
2022/03/13 00:37:34;;;;;;;26.17;9.65;;;5.70;47.70;;;;;;4969884;28;20412;-57
2022/03/13 00:40:01;;;;;;;20.95;10.02;;;5.80;48.10;;;;;;4970602;28;20038;-57
2022/03/13 00:42:28;;;;;;;19.38;9.88;;;5.80;48.10;;;;;;4970226;28;20081;-58
2022/03/13 00:44:53;;;;;;;17.52;9.77;;;5.70;48.30;;;;;;4983802;28;20551;-57
2022/03/13 00:47:21;;;;;;;18.08;9.50;;;5.70;48.50;;;;;;4962137;28;20156;-58
2022/03/13 00:49:47;;;;;;;20.50;9.75;;;5.60;48.70;;;;;;4970536;28;20066;-58
2022/03/13 00:52:13;;;;;;;19.63;9.82;;;5.60;48.90;;;;;;4969709;28;20102;-58
2022/03/13 00:54:39;;;;;;;22.23;9.55;;;5.70;48.80;;;;;;4970075;28;20113;-57
2022/03/13 00:57:04;;;;;;;19.50;9.88;;;5.60;48.80;;;;;;4970520;28;20026;-57
2022/03/13 00:59:30;;;;;;;18.83;9.40;;;5.60;49.00;;;;;;4984434;28;20031;-58
2022/03/13 01:01:55;;;;;;;20.83;10.00;;;5.50;48.80;;;;;;4969829;28;20397;-56
2022/03/13 01:04:22;;;;;;;21.80;10.68;;;5.50;48.90;;;;;;4970106;28;20038;-58
2022/03/13 01:06:48;;;;;;;18.08;9.68;;;5.40;49.00;;;;;;4970192;28;20027;-58
2022/03/13 01:09:13;;;;;;;18.05;10.07;;;5.40;49.50;;;;;;4969974;28;20030;-59
2022/03/13 01:11:39;;;;;;;25.33;11.48;;;5.40;49.30;;;;;;4970359;28;20101;-59
2022/03/13 01:14:05;;;;;;;24.77;10.93;;;5.40;49.50;;;;;;4970056;28;20023;-59
2022/03/13 01:16:36;;;;;;;19.33;9.75;;;5.30;49.80;;;;;;4969286;28;20492;-57
2022/03/13 01:19:03;;;;;;;19.35;10.00;;;5.30;49.60;;;;;;4969906;28;20113;-58
2022/03/13 01:21:34;;;;;;;20.70;9.57;;;5.30;49.70;;;;;;4969832;28;20031;-58
2022/03/13 01:23:59;;;;;;;21.73;10.75;;;5.20;50.10;;;;;;4970352;28;20031;-58
2022/03/13 01:26:25;;;;;;;30.92;10.77;;;5.20;50.20;;;;;;4969367;28;20184;-59
2022/03/13 01:28:57;;;;;;;22.45;10.80;;;5.20;50.40;;;;;;4972188;28;20037;-58
2022/03/13 01:31:31;;;;;;;23.35;9.82;;;5.20;50.30;;;;;;4973397;28;20031;-58
2022/03/13 01:33:59;;;;;;;22.20;10.13;;;5.20;50.40;;;;;;4974457;28;20438;-57
2022/03/13 01:36:25;;;;;;;18.50;10.07;;;5.10;50.40;;;;;;4973622;28;20033;-56
2022/03/13 01:38:53;;;;;;;20.42;10.10;;;5.10;50.40;;;;;;4975014;28;20034;-56
2022/03/13 01:41:19;;;;;;;22.17;10.73;;;5.00;50.60;;;;;;4973823;28;20038;-56
2022/03/13 01:43:45;;;;;;;19.10;10.13;;;5.00;50.50;;;;;;4973825;28;20038;-58
2022/03/13 01:46:11;;;;;;;20.08;10.48;;;5.00;50.30;;;;;;4970579;28;20022;-58
2022/03/13 01:49:03;;;;;;;21.25;10.02;;;5.00;50.30;;;;;;4973164;28;20023;-57
2022/03/13 01:51:30;;;;;;;19.38;9.85;;;4.90;50.40;;;;;;4968408;28;20069;-57
2022/03/13 01:53:59;;;;;;;18.40;9.38;;;4.90;50.40;;;;;;4974268;28;20031;-58
2022/03/13 01:56:25;;;;;;;24.65;10.18;;;4.90;50.80;;;;;;4973229;28;20027;-58
2022/03/13 01:58:53;;;;;;;21.83;10.35;;;4.90;51.40;;;;;;4973008;28;20471;-58
2022/03/13 02:01:21;;;;;;;20.10;9.55;;;4.90;51.70;;;;;;4973610;28;20034;-58
2022/03/13 02:03:47;;;;;;;18.98;9.48;;;4.80;52.10;;;;;;4973389;28;20389;-56
2022/03/13 02:06:13;;;;;;;24.88;10.45;;;4.70;52.00;;;;;;4972743;28;20026;-56
2022/03/13 02:08:39;;;;;;;23.88;10.40;;;4.70;52.10;;;;;;4973273;28;20035;-57
2022/03/13 02:11:05;;;;;;;23.02;10.20;;;4.70;52.60;;;;;;4972891;28;20454;-59
2022/03/13 02:13:32;;;;;;;25.20;10.57;;;4.60;53.00;;;;;;4973769;28;20023;-56
2022/03/13 02:15:58;;;;;;;20.10;11.13;;;4.60;53.10;;;;;;4972920;28;20035;-56
2022/03/13 02:18:23;;;;;;;31.60;11.55;;;4.50;52.90;;;;;;4972656;28;20115;-58
2022/03/13 02:20:49;;;;;;;23.00;12.13;;;4.50;53.00;;;;;;4973525;28;20515;-56
2022/03/13 02:23:19;;;;;;;22.60;11.43;;;4.40;52.70;;;;;;4973085;28;20038;-58
2022/03/13 02:25:52;;;;;;;22.83;11.95;;;4.40;52.60;;;;;;4972493;28;20034;-57
2022/03/13 02:28:25;;;;;;;26.65;11.82;;;4.40;52.40;;;;;;4972427;28;20039;-58
2022/03/13 02:30:53;;;;;;;27.95;11.98;;;4.40;52.20;;;;;;4970117;28;20094;-58
2022/03/13 02:33:20;;;;;;;26.95;12.23;;;4.30;52.10;;;;;;4969368;28;20050;-58
2022/03/13 02:35:55;;;;;;;24.77;12.23;;;4.30;52.00;;;;;;4972935;28;20023;-58
2022/03/13 02:38:21;;;;;;;24.10;11.80;;;4.30;52.20;;;;;;4972246;28;20035;-58
2022/03/13 02:40:48;;;;;;;23.35;11.52;;;4.30;52.00;;;;;;4972332;28;20042;-58
2022/03/13 02:43:13;;;;;;;22.55;11.07;;;4.30;51.70;;;;;;4972854;28;20061;-58
2022/03/13 02:45:39;;;;;;;19.90;10.65;;;4.30;51.60;;;;;;4971379;28;20019;-56
2022/03/13 02:48:08;;;;;;;22.38;11.05;;;4.30;51.80;;;;;;4972861;28;20105;-53
2022/03/13 02:50:34;;;;;;;23.98;10.13;;;4.20;51.90;;;;;;4973221;28;20093;-53
2022/03/13 02:53:00;;;;;;;20.92;10.45;;;4.10;51.80;;;;;;4972493;28;20128;-55
2022/03/13 02:55:26;;;;;;;25.15;10.23;;;4.10;51.80;;;;;;4966508;28;20190;-57
2022/03/13 02:57:52;;;;;;;23.40;10.70;;;4.10;51.80;;;;;;4972817;28;20035;-59
2022/03/13 03:00:19;;;;;;;24.15;11.63;;;4.10;51.80;;;;;;4972893;28;20051;-57
2022/03/13 03:02:45;;;;;;;21.90;11.00;;;4.00;51.90;;;;;;4973093;28;20035;-56
2022/03/13 03:05:11;;;;;;;27.02;12.00;;;4.00;51.90;;;;;;4972371;28;20041;-54
2022/03/13 03:07:38;;;;;;;25.17;11.70;;;4.00;52.00;;;;;;4973609;28;20035;-55
2022/03/13 03:10:05;;;;;;;28.23;12.35;;;3.90;52.10;;;;;;4972822;28;20035;-55
2022/03/13 03:12:33;;;;;;;26.50;11.20;;;4.00;51.80;;;;;;4972333;28;20058;-56
2022/03/13 03:14:59;;;;;;;28.05;10.75;;;3.90;51.90;;;;;;4972354;28;20118;-56
2022/03/13 03:17:24;;;;;;;25.33;11.05;;;3.90;51.70;;;;;;4972599;28;20500;-56
2022/03/13 03:19:50;;;;;;;24.40;10.70;;;3.90;51.90;;;;;;4972674;28;20031;-55
2022/03/13 03:22:16;;;;;;;30.05;11.63;;;3.90;51.80;;;;;;4972395;28;20022;-54
2022/03/13 03:24:41;;;;;;;24.80;11.95;;;3.80;51.90;;;;;;4971456;28;20031;-54
2022/03/13 03:27:07;;;;;;;30.08;11.77;;;3.80;52.00;;;;;;4971358;28;20031;-56
2022/03/13 03:29:33;;;;;;;26.70;11.90;;;3.80;52.20;;;;;;4971763;28;20043;-57
2022/03/13 03:31:58;;;;;;;26.20;11.85;;;3.80;52.50;;;;;;4972372;28;20150;-54
2022/03/13 03:34:26;;;;;;;29.15;12.93;;;3.80;52.50;;;;;;4972152;28;20031;-56
2022/03/13 03:36:55;;;;;;;23.27;10.98;;;3.70;52.80;;;;;;4971769;28;20038;-54
2022/03/13 03:39:23;;;;;;;28.50;11.48;;;3.70;52.70;;;;;;4971896;28;20165;-61
2022/03/13 03:41:50;;;;;;;24.98;11.10;;;3.60;52.70;;;;;;4971133;28;20396;-55
2022/03/13 03:44:17;;;;;;;25.17;11.77;;;3.70;52.80;;;;;;4971563;28;20038;-57
2022/03/13 03:46:45;;;;;;;22.38;10.77;;;3.70;53.00;;;;;;4970869;28;20106;-55
2022/03/13 03:49:11;;;;;;;26.45;11.45;;;3.60;53.10;;;;;;4962718;28;20124;-55
2022/03/13 03:51:38;;;;;;;28.60;12.57;;;3.60;53.00;;;;;;4970415;28;20932;-54
2022/03/13 03:54:05;;;;;;;26.83;11.23;;;3.50;53.10;;;;;;4971970;28;20057;-57
2022/03/13 03:56:31;;;;;;;27.25;11.27;;;3.50;53.10;;;;;;4971011;28;20022;-55
2022/03/13 03:58:57;;;;;;;25.88;10.35;;;3.50;53.30;;;;;;4971318;28;20054;-54
2022/03/13 04:01:22;;;;;;;22.80;10.73;;;3.40;53.30;;;;;;4971608;28;20481;-55
2022/03/13 04:03:49;;;;;;;26.55;11.00;;;3.40;53.60;;;;;;4971571;28;20109;-59
2022/03/13 04:06:15;;;;;;;24.02;11.60;;;3.40;53.60;;;;;;4970048;28;20480;-60
2022/03/13 04:08:41;;;;;;;29.02;12.60;;;3.40;53.60;;;;;;4970788;28;20040;-59
2022/03/13 04:11:08;;;;;;;26.40;11.98;;;3.40;53.40;;;;;;4970629;28;20045;-59
2022/03/13 04:13:38;;;;;;;26.70;11.73;;;3.40;53.70;;;;;;4970919;28;20041;-60
2022/03/13 04:16:06;;;;;;;22.63;11.27;;;3.40;53.50;;;;;;4970767;28;20412;-57
2022/03/13 04:18:32;;;;;;;22.63;11.40;;;3.30;53.40;;;;;;4970964;28;20042;-56
2022/03/13 04:20:59;;;;;;;27.40;11.70;;;3.30;53.70;;;;;;4971095;28;20151;-56
2022/03/13 04:23:26;;;;;;;22.42;11.15;;;3.30;53.30;;;;;;4975713;28;20026;-57
2022/03/13 04:25:52;;;;;;;26.67;10.85;;;3.30;53.30;;;;;;4970383;28;20516;-57
2022/03/13 04:28:17;;;;;;;27.65;11.20;;;3.30;53.40;;;;;;4970425;28;20069;-60
2022/03/13 04:30:44;;;;;;;30.10;12.02;;;3.30;53.40;;;;;;4970448;28;20110;-60
2022/03/13 04:33:09;;;;;;;21.45;11.10;;;3.30;53.60;;;;;;4970396;28;20035;-58
2022/03/13 04:35:35;;;;;;;26.10;11.00;;;3.20;53.60;;;;;;4970448;28;20499;-59
2022/03/13 04:38:01;;;;;;;24.02;11.38;;;3.20;53.50;;;;;;4970069;28;20066;-59
2022/03/13 04:40:26;;;;;;;24.80;11.98;;;3.10;53.60;;;;;;4970499;28;20030;-59
2022/03/13 04:42:52;;;;;;;24.77;11.80;;;3.20;53.80;;;;;;4970193;28;20042;-58
2022/03/13 04:45:18;;;;;;;33.45;12.85;;;3.10;53.90;;;;;;4969715;28;20527;-59
2022/03/13 04:47:44;;;;;;;26.60;12.55;;;3.10;54.10;;;;;;4963147;28;20036;-58
2022/03/13 04:50:10;;;;;;;28.33;12.63;;;3.00;54.10;;;;;;4967656;28;20023;-59
2022/03/13 04:52:36;;;;;;;26.52;13.05;;;3.10;54.10;;;;;;4969900;28;20023;-58
2022/03/13 04:55:02;;;;;;;26.15;11.55;;;3.00;54.00;;;;;;4982066;28;20459;-57
2022/03/13 04:57:27;;;;;;;25.70;10.82;;;3.00;54.10;;;;;;4970028;28;20114;-59
2022/03/13 04:59:53;;;;;;;25.75;12.13;;;3.00;54.30;;;;;;4969756;28;20560;-59
2022/03/13 05:02:19;;;;;;;26.98;11.63;;;3.00;54.40;;;;;;4969458;28;20445;-58
2022/03/13 05:04:44;;;;;;;26.15;10.57;;;2.90;54.10;;;;;;4969442;28;20038;-58
2022/03/13 05:07:11;;;;;;;25.88;11.20;;;3.00;54.20;;;;;;4969935;28;20062;-58
2022/03/13 05:09:37;;;;;;;26.15;12.30;;;2.90;54.40;;;;;;4969906;28;20062;-59
2022/03/13 05:12:05;;;;;;;24.65;11.40;;;2.90;54.60;;;;;;4968841;28;20497;-58
2022/03/13 05:14:31;;;;;;;30.70;12.80;;;2.80;54.60;;;;;;4969955;28;20424;-60
2022/03/13 05:16:58;;;;;;;38.15;13.05;;;2.80;54.70;;;;;;4969701;28;20035;-60
2022/03/13 05:19:23;;;;;;;23.65;11.00;;;2.80;54.80;;;;;;4974753;28;20496;-60
2022/03/13 05:21:49;;;;;;;27.17;11.50;;;2.80;54.80;;;;;;4969458;28;20042;-58
2022/03/13 05:24:15;;;;;;;25.48;11.70;;;2.80;54.80;;;;;;4969048;28;20062;-57
2022/03/13 05:26:40;;;;;;;22.13;11.18;;;2.80;55.00;;;;;;4967543;28;20561;-58
2022/03/13 05:29:06;;;;;;;22.35;12.07;;;2.70;54.90;;;;;;4969746;28;20035;-56
2022/03/13 05:31:32;;;;;;;26.75;11.38;;;2.70;55.00;;;;;;4970733;28;20059;-56
2022/03/13 05:33:58;;;;;;;27.58;11.60;;;2.70;54.90;;;;;;4968611;28;20122;-56
2022/03/13 05:36:23;;;;;;;24.25;12.13;;;2.70;55.00;;;;;;4969391;28;20564;-59
2022/03/13 05:38:49;;;;;;;24.77;12.15;;;2.70;54.90;;;;;;4968622;28;20057;-55
2022/03/13 05:41:14;;;;;;;22.15;10.75;;;2.70;54.80;;;;;;4970195;28;20110;-56
2022/03/13 05:43:42;;;;;;;27.35;11.77;;;2.70;54.80;;;;;;4969090;28;20089;-57
2022/03/13 05:46:08;;;;;;;27.40;11.82;;;2.70;54.90;;;;;;4969503;28;20037;-56
2022/03/13 05:48:34;;;;;;;27.35;12.02;;;2.70;54.90;;;;;;4968304;28;20030;-54
2022/03/13 05:51:00;;;;;;;24.25;12.45;;;2.70;54.80;;;;;;4969778;28;20544;-57
2022/03/13 05:53:25;;;;;;;23.58;11.68;;;2.70;54.70;;;;;;4969546;28;20544;-53
2022/03/13 05:55:52;;;;;;;21.50;10.88;;;2.60;54.60;;;;;;4968483;28;20031;-54
2022/03/13 05:58:19;;;;;;;27.38;11.20;;;2.60;54.80;;;;;;4969705;28;20365;-54
2022/03/13 06:00:46;;;;;;;21.50;10.88;;;2.60;54.70;;;;;;4969484;28;20042;-58
2022/03/13 06:03:13;;;;;;;22.25;10.65;;;2.50;54.80;;;;;;4969727;28;20050;-57
2022/03/13 06:05:38;;;;;;;22.00;10.90;;;2.60;54.90;;;;;;4968189;28;20038;-55
2022/03/13 06:08:04;;;;;;;25.60;12.15;;;2.60;54.60;;;;;;4969630;28;20049;-54
2022/03/13 06:10:30;;;;;;;26.45;11.35;;;2.60;54.40;;;;;;4969777;28;20035;-58
2022/03/13 06:12:56;;;;;;;27.17;11.52;;;2.60;54.50;;;;;;4969749;28;20027;-53
2022/03/13 06:15:22;;;;;;;24.98;10.32;;;2.60;54.50;;;;;;4972290;28;20030;-53
2022/03/13 06:17:48;;;;;;;23.90;10.95;;;2.60;54.40;;;;;;4972723;28;20042;-52
2022/03/13 06:20:15;;;;;;;19.88;10.65;;;2.60;54.40;;;;;;4972580;28;20065;-53
2022/03/13 06:22:44;;;;;;;22.92;11.77;;;2.60;54.80;;;;;;4972756;28;20059;-55
2022/03/13 06:25:11;;;;;;;31.05;11.60;;;2.50;54.80;;;;;;4972522;28;20490;-54
2022/03/13 06:27:38;;;;;;;25.15;11.82;;;2.60;54.80;;;;;;4972978;28;20018;-56
2022/03/13 06:30:12;;;;;;;25.27;11.80;;;2.60;54.80;;;;;;4973576;28;20069;-56
2022/03/13 06:32:39;;;;;;;23.83;11.60;;;2.60;54.80;;;;;;4972862;28;20117;-55
2022/03/13 06:35:05;;;;;;;23.40;11.02;;;2.60;54.60;;;;;;4968493;28;20077;-61
2022/03/13 06:37:31;;;;;;;25.98;11.52;;;2.70;54.50;;;;;;4973188;28;20468;-57
2022/03/13 06:39:56;;;;;;;28.30;11.55;;;2.70;54.50;;;;;;4972747;28;20035;-56
2022/03/13 06:42:22;;;;;;;24.63;11.63;;;2.70;54.50;;;;;;4972342;28;20046;-55
2022/03/13 06:44:48;;;;;;;26.15;11.70;;;2.70;54.90;;;;;;4972709;28;20168;-56
2022/03/13 06:47:13;;;;;;;27.90;11.98;;;2.80;54.30;;;;;;4970438;28;20418;-54
2022/03/13 06:49:39;;;;;;;28.45;11.13;;;2.80;54.10;;;;;;4972580;28;20030;-57
2022/03/13 06:52:05;;;;;;;25.50;12.13;;;2.80;54.10;;;;;;4972766;28;20034;-54
2022/03/13 06:54:31;;;;;;;26.75;11.20;;;2.80;54.00;;;;;;4972452;28;20023;-54
2022/03/13 06:56:57;;;;;;;24.38;11.27;;;2.90;53.80;;;;;;4972615;28;20050;-53
2022/03/13 06:59:23;;;;;;;25.73;11.73;;;2.90;53.80;;;;;;4972237;28;20376;-53
2022/03/13 07:01:49;;;;;;;28.05;11.20;;;2.90;53.90;;;;;;4972427;28;20026;-53
2022/03/13 07:04:14;;;;;;;20.33;11.13;;;2.90;53.60;;;;;;4971785;28;20035;-53
2022/03/13 07:06:41;;;;;;;21.35;9.98;;;3.00;53.60;;;;;;4972294;28;20524;-53
2022/03/13 07:09:07;;;;;;;22.67;10.70;;;3.00;53.30;;;;;;4971994;28;20026;-60
2022/03/13 07:11:34;;;;;;;24.20;11.02;;;3.10;53.30;;;;;;4979160;28;20039;-53
2022/03/13 07:14:04;;;;;;;20.38;10.68;;;3.10;53.30;;;;;;4972232;28;20046;-56
2022/03/13 07:16:30;;;;;;;27.80;10.93;;;3.10;53.10;;;;;;4971260;28;20347;-55
2022/03/13 07:18:56;;;;;;;25.55;10.40;;;3.20;53.00;;;;;;4972125;28;20528;-55
2022/03/13 07:21:22;;;;;;;22.20;10.90;;;3.20;53.00;;;;;;4970451;28;20039;-56
2022/03/13 07:23:47;;;;;;;23.65;10.68;;;3.30;52.80;;;;;;4972352;28;20448;-53
2022/03/13 07:26:14;;;;;;;23.23;11.55;;;3.30;53.00;;;;;;4970439;28;20038;-54
2022/03/13 07:28:39;;;;;;;25.60;11.43;;;3.30;52.80;;;;;;4971692;28;20045;-54
2022/03/13 07:31:05;;;;;;;22.83;10.63;;;3.30;52.70;;;;;;4971979;28;20023;-53
2022/03/13 07:33:32;;;;;;;22.73;10.70;;;3.40;52.70;;;;;;4971056;28;20026;-54
2022/03/13 07:35:57;;;;;;;23.73;10.60;;;3.40;52.80;;;;;;4971633;28;20023;-56
2022/03/13 07:38:23;;;;;;;22.50;10.65;;;3.40;52.80;;;;;;4972522;28;20053;-53
2022/03/13 07:40:49;;;;;;;24.25;10.50;;;3.50;52.90;;;;;;4972104;28;20081;-54
2022/03/13 07:43:14;;;;;;;22.58;10.25;;;3.50;52.60;;;;;;4971066;28;20455;-55
2022/03/13 07:45:40;;;;;;;24.65;11.27;;;3.60;52.40;;;;;;4963251;28;20043;-53
2022/03/13 07:48:05;;;;;;;26.58;11.32;;;3.60;51.90;;;;;;4971600;28;20038;-53
2022/03/13 07:50:31;;;;;;;25.38;10.93;;;3.70;51.80;;;;;;4971158;28;20047;-55
2022/03/13 07:52:57;;;;;;;26.77;11.15;;;3.70;51.40;;;;;;4971783;28;20070;-55
2022/03/13 07:55:24;;;;;;;21.83;10.60;;;3.80;51.40;;;;;;4970897;28;20031;-54
2022/03/13 07:57:49;;;;;;;23.48;9.93;;;3.80;51.20;;;;;;4970838;28;20049;-55
2022/03/13 08:00:17;;;;;;;22.80;10.80;;;3.90;51.00;;;;;;4970250;28;20027;-55
2022/03/13 08:02:46;;;;;;;25.40;11.40;;;3.90;51.10;;;;;;4971028;28;20091;-55
2022/03/13 08:05:16;;;;;;;25.63;10.68;;;4.00;51.10;;;;;;4964638;28;20122;-54
2022/03/13 08:07:42;;;;;;;21.83;11.10;;;4.10;51.00;;;;;;4971689;28;20023;-59
2022/03/13 08:10:09;;;;;;;25.52;10.30;;;4.10;50.80;;;;;;4970603;28;20027;-59
2022/03/13 08:12:35;;;;;;;24.20;9.80;;;4.10;50.80;;;;;;4966089;28;20034;-56
2022/03/13 08:15:01;;;;;;;19.88;10.23;;;4.20;50.80;;;;;;4970515;28;20177;-57
2022/03/13 08:17:27;;;;;;;20.35;10.82;;;4.30;50.70;;;;;;4971209;28;20054;-57
2022/03/13 08:19:56;;;;;;;29.00;10.90;;;4.40;50.50;;;;;;4972660;28;20035;-56
2022/03/13 08:22:22;;;;;;;21.92;10.45;;;4.40;50.20;;;;;;4968541;28;20031;-58
2022/03/13 08:24:48;;;;;;;20.98;10.98;;;4.60;50.70;;;;;;4991176;28;20057;-58
2022/03/13 08:27:14;;;;;;;17.42;9.50;;;4.70;50.40;;;;;;4985276;28;20089;-54
2022/03/13 08:29:39;;;;;;;23.98;11.13;;;4.70;50.20;;;;;;4969392;28;20057;-55
2022/03/13 08:32:05;;;;;;;22.00;10.48;;;4.80;50.70;;;;;;4970450;28;20037;-58
2022/03/13 08:34:33;;;;;;;22.00;11.07;;;4.90;50.20;;;;;;4961369;28;20113;-56
2022/03/13 08:36:59;;;;;;;24.15;10.45;;;5.00;49.90;;;;;;4970198;28;20103;-55
2022/03/13 08:39:24;;;;;;;24.95;9.90;;;5.00;50.10;;;;;;4970068;28;20023;-56
2022/03/13 08:41:50;;;;;;;20.00;10.38;;;5.00;49.70;;;;;;4971411;28;20182;-55
2022/03/13 08:44:16;;;;;;;23.13;10.48;;;5.00;49.40;;;;;;4970868;28;20113;-57
2022/03/13 08:46:41;;;;;;;23.48;11.02;;;5.00;49.20;;;;;;4969921;28;20043;-57
2022/03/13 08:49:08;;;;;;;21.00;10.35;;;5.00;49.00;;;;;;4972003;28;20029;-55
2022/03/13 08:51:33;;;;;;;21.55;10.18;;;5.00;49.10;;;;;;4975617;28;20046;-56
2022/03/13 08:53:59;;;;;;;25.02;9.93;;;5.00;49.30;;;;;;4980899;28;20035;-57
2022/03/13 08:56:25;;;;;;;29.75;11.05;;;5.20;49.30;;;;;;4976601;28;20094;-61
2022/03/13 08:58:52;;;;;;;20.55;10.40;;;5.30;49.30;;;;;;4971118;28;20038;-61
2022/03/13 09:01:18;;;;;;;19.80;9.95;;;5.40;48.90;;;;;;4972843;28;20023;-56
2022/03/13 09:03:44;;;;;;;22.00;10.30;;;5.50;49.10;;;;;;4970409;28;20387;-58
2022/03/13 09:06:09;;;;;;;22.40;10.20;;;5.50;49.20;;;;;;4970761;28;20126;-56
2022/03/13 09:08:35;;;;;;;22.67;9.80;;;5.50;49.10;;;;;;4970609;28;20057;-57
2022/03/13 09:11:01;;;;;;;22.15;10.43;;;5.50;49.30;;;;;;4972273;28;20048;-54
2022/03/13 09:13:27;;;;;;;19.80;10.75;;;5.70;49.40;;;;;;4972132;28;20097;-55
2022/03/13 09:15:53;;;;;;;20.15;10.23;;;5.80;49.10;;;;;;4968815;28;20054;-56
2022/03/13 09:18:19;;;;;;;20.20;9.98;;;5.80;49.00;;;;;;4971550;28;20030;-58
2022/03/13 09:20:45;;;;;;;22.42;10.43;;;6.00;49.20;;;;;;4969162;28;20133;-56
2022/03/13 09:23:10;;;;;;;23.65;10.98;;;5.90;48.60;;;;;;4964592;28;20041;-57
2022/03/13 09:25:36;;;;;;;23.40;10.70;;;6.00;49.10;;;;;;4964428;28;20331;-59
2022/03/13 09:28:03;;;;;;;22.55;11.25;;;6.10;48.90;;;;;;4962274;28;20039;-60
2022/03/13 09:30:28;;;;;;;23.50;10.80;;;6.10;49.00;;;;;;4966890;28;20035;-59
2022/03/13 09:32:54;;;;;;;22.00;10.80;;;6.20;48.60;;;;;;4967589;28;20409;-58
2022/03/13 09:35:20;;;;;;;25.58;11.10;;;6.40;48.30;;;;;;4969330;28;20033;-54
2022/03/13 09:37:46;;;;;;;20.85;10.10;;;6.70;49.70;;;;;;4969171;28;20466;-58
2022/03/13 09:40:13;;;;;;;23.15;10.82;;;6.90;49.80;;;;;;4967837;28;20034;-58
2022/03/13 09:42:39;;;;;;;22.85;10.75;;;6.80;49.20;;;;;;4968946;28;20045;-57
2022/03/13 09:45:06;;;;;;;20.50;10.38;;;6.90;49.60;;;;;;4969859;28;20019;-54
2022/03/13 09:47:32;;;;;;;25.85;10.50;;;7.10;49.50;;;;;;4968826;28;20054;-53
2022/03/13 09:49:57;;;;;;;25.85;10.23;;;7.30;48.90;;;;;;4972613;28;20105;-55
2022/03/13 09:52:23;;;;;;;22.77;10.70;;;7.20;48.00;;;;;;4973446;28;20034;-56
2022/03/13 09:54:49;;;;;;;16.67;9.73;;;7.40;47.90;;;;;;4972961;28;20041;-57
2022/03/13 09:57:17;;;;;;;23.85;10.70;;;7.40;47.70;;;;;;4972908;28;20596;-59
2022/03/13 09:59:43;;;;;;;19.10;10.60;;;7.70;47.20;;;;;;4973405;28;20604;-58
2022/03/13 10:02:09;;;;;;;18.80;9.68;;;7.70;46.10;;;;;;4973916;28;20417;-59
2022/03/13 10:04:35;;;;;;;21.05;10.30;;;7.90;46.20;;;;;;4971609;28;20039;-51
2022/03/13 10:07:10;;;;;;;24.20;9.70;;;8.10;46.30;;;;;;4972531;28;20106;-55
2022/03/13 10:09:40;;;;;;;19.20;9.82;;;8.30;45.60;;;;;;4973094;28;20062;-50
2022/03/13 10:12:16;;;;;;;17.48;9.45;;;8.50;45.50;;;;;;4974293;28;20132;-50
2022/03/13 10:15:03;;;;;;;18.42;9.35;;;8.70;44.50;;;;;;4971248;28;20034;-52
2022/03/13 10:17:31;;;;;;;19.15;9.65;;;8.60;44.10;;;;;;4967121;28;20050;-58
2022/03/13 10:20:11;;;;;;;19.23;10.18;;;8.80;44.20;;;;;;4970521;28;20026;-54
2022/03/13 10:22:37;;;;;;;19.55;10.13;;;9.00;43.40;;;;;;4971715;28;20161;-56
2022/03/13 10:25:03;;;;;;;19.88;9.30;;;9.00;42.40;;;;;;4970735;28;20451;-58
2022/03/13 10:27:32;;;;;;;22.35;10.15;;;9.00;42.50;;;;;;4972815;28;20030;-57
2022/03/13 10:30:00;;;;;;;20.70;10.18;;;9.10;43.30;;;;;;4971275;28;20499;-56
2022/03/13 10:32:26;;;;;;;18.83;9.32;;;9.30;42.90;;;;;;4971654;28;20031;-55
2022/03/13 10:34:55;;;;;;;22.27;9.85;;;9.30;42.10;;;;;;4969469;28;20054;-56
2022/03/13 11:08:26;;;;;;;17.35;9.15;;;10.60;39.70;;;;;;5886231;22;20274;-54
2022/03/13 11:10:53;;;;;;;14.38;9.13;;;10.60;40.10;;;;;;5026752;28;20447;-58
2022/03/13 11:13:21;;;;;;;26.45;10.10;;;10.60;40.30;;;;;;5025095;28;20104;-57
2022/03/13 11:15:47;;;;;;;20.95;9.35;;;10.80;39.80;;;;;;5026376;28;20028;-57
2022/03/13 11:18:17;;;;;;;17.73;10.07;;;10.90;39.70;;;;;;5030052;28;20426;-55
2022/03/13 11:20:43;;;;;;;19.55;9.75;;;11.00;39.00;;;;;;5009825;28;20038;-54
2022/03/13 11:23:09;;;;;;;24.58;9.93;;;11.10;39.20;;;;;;5009958;28;20037;-51
2022/03/13 11:25:35;;;;;;;17.85;9.50;;;11.20;39.70;;;;;;5009214;28;20029;-51
2022/03/13 11:28:02;;;;;;;17.55;9.02;;;11.40;39.10;;;;;;5008124;28;20088;-52
2022/03/13 11:30:35;;;;;;;16.13;8.63;;;11.30;38.20;;;;;;5003045;28;20022;-51
2022/03/13 11:33:02;;;;;;;17.60;9.10;;;11.40;38.40;;;;;;5008292;28;20061;-53
2022/03/13 11:35:32;;;;;;;17.83;9.40;;;11.50;38.80;;;;;;5003650;28;20413;-54
2022/03/13 11:38:00;;;;;;;25.40;10.18;;;11.40;38.80;;;;;;5003024;28;20031;-50
2022/03/13 11:40:34;;;;;;;19.92;9.88;;;11.60;38.80;;;;;;5007136;28;20041;-54
2022/03/13 11:43:12;;;;;;;16.48;9.65;;;11.40;38.60;;;;;;5005655;28;20026;-61
2022/03/13 11:45:39;;;;;;;15.82;8.85;;;11.60;37.90;;;;;;5003716;28;20458;-61
2022/03/13 11:48:20;;;;;;;17.10;8.45;;;11.80;37.20;;;;;;4996104;28;20037;-61
2022/03/13 11:50:56;;;;;;;15.10;8.82;;;12.10;37.00;;;;;;4996347;28;20042;-60
2022/03/13 11:53:44;;;;;;;17.88;9.63;;;12.30;36.80;;;;;;5009191;28;20087;-61
2022/03/13 11:56:20;;;;;;;18.10;8.90;;;12.40;36.10;;;;;;5009887;28;20101;-60
2022/03/13 11:58:51;;;;;;;13.88;8.60;;;12.40;36.10;;;;;;5009849;28;20479;-62
2022/03/13 12:01:39;;;;;;;17.52;8.88;;;13.00;36.00;;;;;;5010220;28;20029;-61
2022/03/13 12:04:10;;;;;;;19.98;9.18;;;13.60;34.80;;;;;;5009101;28;20042;-59
2022/03/13 12:06:48;;;;;;;19.13;8.40;;;14.50;33.50;;;;;;5002533;28;20018;-62
2022/03/13 12:09:26;;;;;;;16.15;8.43;;;14.70;32.20;;;;;;4999805;28;20037;-58
2022/03/13 12:12:15;;;;;;;16.35;9.10;;;15.30;31.30;;;;;;4990853;28;20053;-61
2022/03/13 12:15:05;;;;;;;14.43;8.25;;;15.90;30.90;;;;;;4990263;28;20058;-60
2022/03/13 12:17:51;;;;;;;12.98;7.95;;;16.50;30.00;;;;;;4995246;28;20336;-59
2022/03/13 12:20:24;;;;;;;16.98;7.47;;;17.10;29.50;;;;;;4994953;28;20038;-58
2022/03/13 12:22:53;;;;;;;17.08;8.27;;;17.10;28.80;;;;;;4998380;28;20030;-61
2022/03/13 12:25:25;;;;;;;13.35;7.72;;;16.50;28.80;;;;;;5008010;28;20065;-61
2022/03/13 12:27:51;;;;;;;;;;;16.80;29.40;;;;;;4992114;28;20036;-59
2022/03/13 12:30:25;;;;;;;18.55;8.65;;;16.90;29.20;;;;;;5004443;28;19910;-61
2022/03/13 12:32:57;;;;;;;16.42;7.55;;;16.70;28.90;;;;;;5008547;28;20481;-58
2022/03/13 12:35:23;;;;;;;15.68;8.00;;;16.40;29.30;;;;;;4997536;28;20118;-58
2022/03/13 12:37:57;;;;;;;14.38;8.05;;;16.80;29.50;;;;;;4996515;28;20042;-59
2022/03/13 12:40:24;;;;;;;13.63;7.75;;;17.20;29.00;;;;;;5004518;28;20034;-61
2022/03/13 12:42:58;;;;;;;13.90;8.10;;;16.90;29.10;;;;;;5002268;28;20095;-60
2022/03/13 12:45:26;;;;;;;15.73;8.20;;;16.80;29.00;;;;;;5009205;28;20387;-59
2022/03/13 12:47:54;;;;;;;18.33;7.78;;;16.80;29.20;;;;;;5008492;28;20049;-60
2022/03/13 12:50:25;;;;;;;10.68;7.18;;;16.60;29.20;;;;;;5008322;28;20022;-60
2022/03/13 12:53:01;;;;;;;13.57;8.23;;;16.90;29.10;;;;;;5008843;28;20030;-59
2022/03/13 12:55:28;;;;;;;13.80;7.72;;;17.40;28.80;;;;;;4989500;28;20277;-61
2022/03/13 12:57:57;;;;;;;16.23;7.93;;;17.30;28.50;;;;;;4990407;28;20046;-60
2022/03/13 13:00:34;;;;;;;14.68;7.18;;;17.60;28.50;;;;;;4990089;28;20034;-59
2022/03/13 13:03:03;;;;;;;14.65;7.97;;;17.90;28.20;;;;;;5006597;28;20045;-59
2022/03/13 13:05:29;;;;;;;14.65;7.82;;;17.80;28.20;;;;;;5008742;28;20029;-59
2022/03/13 13:07:55;;;;;;;12.75;7.75;;;17.80;28.30;;;;;;5008542;28;20053;-59
2022/03/13 13:10:21;;;;;;;12.90;7.57;;;17.70;28.30;;;;;;5009337;28;20486;-58